createdAt,value
2023-01-29T00:02:13.251Z,2.66
2023-01-29T00:05:27.408Z,2.71
2023-01-29T00:08:30.745Z,2.61
2023-01-29T00:11:33.505Z,2.47
2023-01-29T00:14:35.896Z,2.53
2023-01-29T00:17:38.527Z,2.66
2023-01-29T00:20:43.739Z,2.68
2023-01-29T00:23:47.221Z,2.62
2023-01-29T00:26:50.337Z,2.49
2023-01-29T00:30:11.977Z,2.43
2023-01-29T00:33:14.524Z,2.30
2023-01-29T00:36:19.619Z,2.30
2023-01-29T00:39:31.425Z,2.17
2023-01-29T00:43:02.887Z,2.28
2023-01-29T00:46:06.590Z,2.33
2023-01-29T00:49:10.031Z,2.19
2023-01-29T00:52:24.138Z,2.32
2023-01-29T00:55:26.805Z,2.29
2023-01-29T00:58:34.271Z,2.01
2023-01-29T01:01:55.277Z,2.19
2023-01-29T01:04:57.761Z,2.18
2023-01-29T01:08:00.433Z,2.25
2023-01-29T01:11:06.220Z,2.12
2023-01-29T01:14:09.481Z,1.96
2023-01-29T01:17:11.816Z,1.92
2023-01-29T01:20:15.699Z,1.92
2023-01-29T01:23:21.039Z,2.06
2023-01-29T01:26:23.792Z,1.90
2023-01-29T01:29:26.119Z,1.97
2023-01-29T01:32:28.791Z,1.94
2023-01-29T01:35:31.239Z,1.92
2023-01-29T01:38:33.921Z,1.84
2023-01-29T01:41:36.679Z,1.71
2023-01-29T01:44:53.430Z,1.62
2023-01-29T01:48:01.405Z,1.64
2023-01-29T01:51:06.499Z,1.69
2023-01-29T01:54:18.603Z,1.62
2023-01-29T01:57:25.391Z,1.56
2023-01-29T02:00:28.243Z,1.46
2023-01-29T02:03:52.085Z,1.51
2023-01-29T02:07:14.591Z,1.38
2023-01-29T02:10:18.956Z,1.61
2023-01-29T02:13:21.916Z,1.40
2023-01-29T02:16:24.323Z,1.58
2023-01-29T02:19:38.845Z,1.64
2023-01-29T02:23:02.612Z,1.62
2023-01-29T02:26:47.528Z,1.60
2023-01-29T02:30:13.857Z,1.56
2023-01-29T02:33:54.183Z,1.53
2023-01-29T02:37:11.152Z,1.47
2023-01-29T02:40:27.295Z,1.30
2023-01-29T02:43:35.462Z,1.38
2023-01-29T02:47:00.485Z,1.17
2023-01-29T02:50:05.560Z,1.17
2023-01-29T02:53:17.065Z,1.33
2023-01-29T02:56:27.967Z,1.36
2023-01-29T02:59:44.130Z,1.38
2023-01-29T03:03:20.216Z,1.36
2023-01-29T03:06:28.401Z,1.27
2023-01-29T03:09:39.595Z,1.23
2023-01-29T03:12:47.049Z,1.22
2023-01-29T03:16:01.611Z,1.18
2023-01-29T03:19:13.412Z,1.20
2023-01-29T03:22:17.389Z,1.23
2023-01-29T03:25:41.393Z,1.35
2023-01-29T03:29:06.095Z,1.19
2023-01-29T03:32:10.412Z,1.44
2023-01-29T03:35:21.034Z,1.34
2023-01-29T03:38:29.681Z,1.59
2023-01-29T03:41:47.649Z,1.52
2023-01-29T03:45:02.313Z,1.61
2023-01-29T03:48:37.012Z,1.65
2023-01-29T03:51:46.061Z,1.71
2023-01-29T03:55:35.420Z,1.69
2023-01-29T03:58:56.063Z,1.60
2023-01-29T04:02:05.781Z,1.67
2023-01-29T04:05:19.410Z,1.56
2023-01-29T04:08:28.174Z,1.63
2023-01-29T04:11:36.204Z,1.66
2023-01-29T04:14:39.440Z,1.58
2023-01-29T04:17:45.767Z,1.73
2023-01-29T04:20:48.419Z,1.65
2023-01-29T04:23:51.027Z,1.82
2023-01-29T04:27:21.290Z,1.80
2023-01-29T04:30:43.857Z,1.75
2023-01-29T04:34:13.894Z,1.79
2023-01-29T04:37:27.076Z,1.80
2023-01-29T04:41:04.995Z,1.61
2023-01-29T04:44:46.779Z,1.75
2023-01-29T04:48:00.339Z,1.77
2023-01-29T04:51:19.932Z,1.81
2023-01-29T04:54:41.083Z,1.81
2023-01-29T04:57:53.280Z,1.73
2023-01-29T05:00:56.546Z,1.84
2023-01-29T05:04:04.653Z,1.87
2023-01-29T05:07:11.901Z,1.88
2023-01-29T05:10:18.356Z,1.88
2023-01-29T05:13:23.432Z,1.93
2023-01-29T05:16:30.143Z,1.90
2023-01-29T05:19:32.500Z,1.92
2023-01-29T05:22:39.908Z,1.82
2023-01-29T05:25:42.296Z,1.64
2023-01-29T05:28:44.915Z,1.76
2023-01-29T05:31:47.393Z,1.75
2023-01-29T05:34:50.168Z,1.80
2023-01-29T05:37:52.458Z,1.76
2023-01-29T05:40:55.309Z,1.81
2023-01-29T05:43:57.624Z,1.78
2023-01-29T05:47:02.657Z,1.74
2023-01-29T05:50:06.430Z,1.80
2023-01-29T05:53:09.363Z,1.52
2023-01-29T05:56:11.747Z,1.57
2023-01-29T05:59:15.852Z,1.66
2023-01-29T06:02:18.251Z,1.46
2023-01-29T06:05:21.069Z,1.54
2023-01-29T06:08:23.379Z,1.56
2023-01-29T06:11:26.085Z,1.37
2023-01-29T06:14:28.815Z,1.40
2023-01-29T06:17:31.428Z,1.62
2023-01-29T06:20:33.817Z,1.36
2023-01-29T06:23:36.683Z,1.59
2023-01-29T06:26:39.120Z,1.32
2023-01-29T06:29:41.672Z,1.39
2023-01-29T06:32:44.038Z,1.51
2023-01-29T06:35:46.711Z,1.34
2023-01-29T06:38:49.243Z,1.40
2023-01-29T06:41:52.012Z,1.35
2023-01-29T06:44:55.463Z,1.46
2023-01-29T06:48:00.488Z,1.38
2023-01-29T06:51:08.610Z,1.33
2023-01-29T06:54:11.319Z,1.43
2023-01-29T06:57:13.664Z,1.41
2023-01-29T07:00:17.357Z,1.52
2023-01-29T07:03:19.840Z,1.63
2023-01-29T07:06:27.744Z,1.48
2023-01-29T07:09:30.130Z,1.48
2023-01-29T07:12:33.007Z,1.60
2023-01-29T07:15:37.331Z,1.56
2023-01-29T07:18:40.014Z,1.66
2023-01-29T07:21:42.323Z,1.44
2023-01-29T07:24:45.087Z,1.64
2023-01-29T07:27:47.500Z,1.73
2023-01-29T07:30:50.181Z,1.68
2023-01-29T07:33:53.723Z,1.36
2023-01-29T07:36:56.941Z,1.46
2023-01-29T07:39:59.301Z,1.46
2023-01-29T07:43:04.143Z,1.78
2023-01-29T07:46:08.839Z,1.55
2023-01-29T07:49:11.574Z,1.68
2023-01-29T07:52:13.936Z,1.66
2023-01-29T07:55:17.080Z,1.74
2023-01-29T07:58:19.749Z,1.56
2023-01-29T08:01:22.473Z,1.46
2023-01-29T08:04:25.407Z,1.63
2023-01-29T08:07:27.865Z,1.62
2023-01-29T08:10:30.608Z,1.42
2023-01-29T08:13:33.534Z,1.45
2023-01-29T08:16:36.329Z,1.45
2023-01-29T08:19:38.820Z,1.64
2023-01-29T08:22:41.424Z,1.65
2023-01-29T08:25:44.313Z,1.85
2023-01-29T08:28:47.027Z,1.85
2023-01-29T08:31:49.441Z,1.97
2023-01-29T08:34:52.165Z,1.93
2023-01-29T08:37:56.171Z,1.72
2023-01-29T08:40:58.804Z,1.80
2023-01-29T08:44:02.424Z,1.62
2023-01-29T08:47:05.234Z,1.74
2023-01-29T08:50:08.299Z,1.77
2023-01-29T08:53:10.959Z,1.83
2023-01-29T08:56:19.573Z,1.79
2023-01-29T08:59:36.324Z,1.58
2023-01-29T09:02:38.750Z,1.72
2023-01-29T09:05:41.799Z,1.88
2023-01-29T09:08:44.375Z,1.84
2023-01-29T09:11:47.067Z,1.93
2023-01-29T09:14:49.446Z,1.85
2023-01-29T09:17:52.270Z,1.54
2023-01-29T09:20:54.653Z,1.81
2023-01-29T09:23:57.350Z,1.73
2023-01-29T09:26:59.728Z,1.84
2023-01-29T09:30:02.513Z,1.84
2023-01-29T09:33:08.341Z,1.90
2023-01-29T09:36:11.016Z,1.72
2023-01-29T09:39:13.397Z,1.98
2023-01-29T09:42:43.802Z,1.93
2023-01-29T09:45:55.119Z,1.82
2023-01-29T09:49:07.601Z,1.90
2023-01-29T09:52:27.200Z,1.66
2023-01-29T09:55:45.935Z,1.81
2023-01-29T09:58:48.537Z,1.86
2023-01-29T10:02:06.157Z,1.94
2023-01-29T10:05:36.442Z,1.74
2023-01-29T10:09:00.511Z,1.46
2023-01-29T10:12:29.789Z,1.40
2023-01-29T10:15:57.975Z,1.41
2023-01-29T10:19:21.273Z,1.59
2023-01-29T10:22:45.526Z,1.55
2023-01-29T10:25:49.079Z,1.58
2023-01-29T10:28:55.357Z,1.67
2023-01-29T10:32:05.040Z,1.65
2023-01-29T10:35:30.612Z,1.38
2023-01-29T10:38:53.348Z,1.50
2023-01-29T10:42:13.767Z,1.29
2023-01-29T10:45:31.545Z,1.25
2023-01-29T10:48:44.721Z,1.49
2023-01-29T10:51:47.381Z,1.35
2023-01-29T10:55:18.012Z,1.48
2023-01-29T10:58:37.084Z,1.39
2023-01-29T11:01:39.488Z,1.42
2023-01-29T11:04:42.231Z,1.23
2023-01-29T11:07:44.814Z,1.50
2023-01-29T11:11:13.536Z,1.54
2023-01-29T11:14:26.863Z,1.41
2023-01-29T11:17:29.737Z,1.29
2023-01-29T11:20:34.318Z,1.25
2023-01-29T11:23:37.012Z,1.45
2023-01-29T11:26:42.393Z,1.48
2023-01-29T11:29:47.995Z,1.50
2023-01-29T11:32:57.044Z,1.67
2023-01-29T11:36:00.606Z,1.65
2023-01-29T11:39:09.183Z,1.91
2023-01-29T11:42:21.030Z,1.40
2023-01-29T11:45:23.423Z,1.65
2023-01-29T11:48:50.243Z,1.52
2023-01-29T11:51:56.055Z,1.59
2023-01-29T11:55:03.747Z,1.69
2023-01-29T11:58:27.598Z,1.80
2023-01-29T12:01:37.316Z,2.13
2023-01-29T12:04:40.366Z,1.90
2023-01-29T12:07:45.513Z,1.85
2023-01-29T12:10:48.319Z,1.98
2023-01-29T12:13:59.759Z,2.08
2023-01-29T12:17:12.247Z,2.02
2023-01-29T12:20:28.175Z,2.11
2023-01-29T12:23:58.323Z,2.10
2023-01-29T12:27:15.868Z,2.32
2023-01-29T12:30:31.588Z,2.05
2023-01-29T12:33:40.078Z,1.59
2023-01-29T12:36:55.404Z,1.80
2023-01-29T12:39:57.780Z,1.98
2023-01-29T12:43:07.132Z,2.07
2023-01-29T12:46:35.097Z,2.01
2023-01-29T12:49:39.758Z,1.83
2023-01-29T12:52:48.300Z,2.03
2023-01-29T12:55:57.675Z,2.00
2023-01-29T12:59:04.787Z,1.94
2023-01-29T13:06:25.517Z,2.60
2023-01-29T13:09:33.340Z,2.49
2023-01-29T13:12:38.697Z,2.45
2023-01-29T13:15:44.300Z,2.66
2023-01-29T13:18:52.861Z,2.86
2023-01-29T13:22:01.257Z,2.77
2023-01-29T13:25:05.770Z,2.42
2023-01-29T13:28:19.000Z,2.32
2023-01-29T13:31:33.744Z,2.23
2023-01-29T13:34:48.663Z,2.46
2023-01-29T13:37:55.246Z,2.51
2023-01-29T13:41:03.677Z,2.48
2023-01-29T13:44:09.503Z,2.12
2023-01-29T13:47:28.213Z,2.43
2023-01-29T13:50:38.563Z,2.10
2023-01-29T13:53:42.390Z,1.78
2023-01-29T13:56:58.450Z,2.09
2023-01-29T14:00:01.119Z,2.11
2023-01-29T14:03:04.771Z,1.93
2023-01-29T14:06:08.698Z,1.90
2023-01-29T14:09:40.167Z,1.27
2023-01-29T14:12:43.996Z,1.39
2023-01-29T14:15:54.566Z,1.10
2023-01-29T14:19:00.173Z,1.04
2023-01-29T14:22:02.665Z,1.30
2023-01-29T14:25:06.728Z,1.24
2023-01-29T14:28:16.679Z,1.09
2023-01-29T14:32:13.758Z,1.09
2023-01-29T14:35:49.348Z,1.07
2023-01-29T14:38:54.509Z,1.16
2023-01-29T14:41:57.876Z,1.11
2023-01-29T14:45:08.571Z,1.09
2023-01-29T14:48:10.942Z,0.93
2023-01-29T14:51:16.808Z,0.84
2023-01-29T14:54:27.817Z,0.72
2023-01-29T14:57:31.819Z,0.78
2023-01-29T15:00:38.917Z,0.91
2023-01-29T15:03:50.958Z,1.02
2023-01-29T15:07:04.381Z,0.83
2023-01-29T15:10:22.701Z,0.94
2023-01-29T15:13:38.243Z,0.89
2023-01-29T15:17:18.178Z,0.93
2023-01-29T15:20:35.835Z,0.65
2023-01-29T15:23:40.741Z,0.65
2023-01-29T15:26:43.458Z,0.51
2023-01-29T15:29:57.562Z,0.57
2023-01-29T15:33:02.154Z,0.59
2023-01-29T15:36:09.357Z,0.62
2023-01-29T15:39:21.532Z,0.30
2023-01-29T15:42:26.865Z,0.46
2023-01-29T15:45:33.996Z,0.43
2023-01-29T15:48:41.052Z,0.39
2023-01-29T15:51:43.692Z,0.49
2023-01-29T15:54:47.177Z,0.50
2023-01-29T15:57:50.260Z,0.33
2023-01-29T16:00:55.578Z,0.24
2023-01-29T16:04:03.139Z,0.29
2023-01-29T16:07:05.659Z,0.24
2023-01-29T16:10:16.527Z,0.27
2023-01-29T16:13:23.597Z,0.18
2023-01-29T16:16:28.199Z,0.27
2023-01-29T16:19:30.935Z,0.02
2023-01-29T16:22:38.331Z,0.10
2023-01-29T16:25:40.812Z,0.29
2023-01-29T16:28:45.321Z,-0.04
2023-01-29T16:31:50.886Z,0.03
2023-01-29T16:34:57.955Z,-0.17
2023-01-29T16:38:04.768Z,-0.16
2023-01-29T16:41:15.512Z,-0.33
2023-01-29T16:44:20.929Z,-0.24
2023-01-29T16:47:29.763Z,-0.10
2023-01-29T16:50:46.245Z,-0.10
2023-01-29T16:53:58.278Z,-0.23
2023-01-29T16:57:02.221Z,-0.19
2023-01-29T17:00:08.765Z,-0.04
2023-01-29T17:03:13.207Z,0.01
2023-01-29T17:06:23.326Z,-0.05
2023-01-29T17:09:32.890Z,0.04
2023-01-29T17:12:37.360Z,0.05
2023-01-29T17:15:48.244Z,-0.04
2023-01-29T17:18:51.276Z,-0.12
2023-01-29T17:21:53.801Z,-0.14
2023-01-29T17:24:56.537Z,-0.22
2023-01-29T17:28:01.578Z,-0.26
2023-01-29T17:31:07.219Z,-0.39
2023-01-29T17:34:14.913Z,-0.28
2023-01-29T17:37:17.853Z,-0.40
2023-01-29T17:40:33.531Z,-0.43
2023-01-29T17:43:36.234Z,-0.81
2023-01-29T17:46:38.601Z,-0.78
2023-01-29T17:49:42.165Z,-0.81
2023-01-29T17:52:44.547Z,-0.79
2023-01-29T17:55:47.575Z,-1.02
2023-01-29T17:58:50.007Z,-0.92
2023-01-29T18:01:53.711Z,-0.79
2023-01-29T18:08:33.787Z,-0.79
2023-01-29T18:11:36.532Z,-0.68
2023-01-29T18:14:38.897Z,-0.83
2023-01-29T18:17:41.838Z,-0.87
2023-01-29T18:20:45.120Z,-0.89
2023-01-29T18:23:47.817Z,-0.77
2023-01-29T18:26:51.309Z,-0.88
2023-01-29T18:29:54.056Z,-0.90
2023-01-29T18:32:57.620Z,-0.89
2023-01-29T18:36:00.804Z,-0.88
2023-01-29T18:39:03.200Z,-0.96
2023-01-29T18:42:05.930Z,-1.07
2023-01-29T18:45:08.762Z,-0.82
2023-01-29T18:48:11.381Z,-0.84
2023-01-29T18:51:13.933Z,-1.01
2023-01-29T18:54:18.261Z,-1.06
2023-01-29T18:58:27.174Z,-1.04
2023-01-29T19:00:43.834Z,-1.16
2023-01-29T19:03:46.249Z,-1.13
2023-01-29T19:06:48.913Z,-1.01
2023-01-29T19:09:51.317Z,-0.98
2023-01-29T19:12:53.941Z,-1.10
2023-01-29T19:15:56.434Z,-1.08
2023-01-29T19:18:59.879Z,-1.18
2023-01-29T19:22:02.506Z,-1.27
2023-01-29T19:25:06.236Z,-1.23
2023-01-29T19:28:09.040Z,-1.05
2023-01-29T19:31:11.735Z,-1.23
2023-01-29T19:34:14.595Z,-1.15
2023-01-29T19:37:17.294Z,-1.14
2023-01-29T19:40:19.863Z,-1.12
2023-01-29T19:43:22.616Z,-1.23
2023-01-29T19:46:24.964Z,-1.17
2023-01-29T19:49:27.588Z,-1.17
2023-01-29T19:52:50.641Z,-1.30
2023-01-29T19:56:01.981Z,-1.21
2023-01-29T19:59:05.127Z,-1.21
2023-01-29T20:02:09.636Z,-1.22
2023-01-29T20:05:13.088Z,-1.36
2023-01-29T20:08:15.555Z,-1.39
2023-01-29T20:11:20.801Z,-1.19
2023-01-29T20:14:23.139Z,-1.31
2023-01-29T20:17:25.814Z,-1.52
2023-01-29T20:20:29.843Z,-1.48
2023-01-29T20:23:38.400Z,-1.25
2023-01-29T20:26:41.094Z,-1.43
2023-01-29T20:29:45.278Z,-1.29
2023-01-29T20:32:47.611Z,-1.13
2023-01-29T20:36:10.850Z,-1.20
2023-01-29T20:39:13.362Z,-1.11
2023-01-29T20:42:15.996Z,-1.31
2023-01-29T20:45:18.660Z,-1.21
2023-01-29T20:48:21.299Z,-1.46
2023-01-29T20:51:24.033Z,-1.30
2023-01-29T20:54:26.905Z,-1.36
2023-01-29T20:57:29.732Z,-1.57
2023-01-29T21:00:32.367Z,-1.51
2023-01-29T21:03:34.751Z,-1.32
2023-01-29T21:06:37.358Z,-1.34
2023-01-29T21:09:39.711Z,-1.46
2023-01-29T21:12:42.340Z,-1.62
2023-01-29T21:15:44.972Z,-1.36
2023-01-29T21:18:47.613Z,-1.46
2023-01-29T21:21:49.963Z,-1.51
2023-01-29T21:24:52.593Z,-1.60
2023-01-29T21:27:55.109Z,-1.46
2023-01-29T21:31:11.816Z,-1.47
2023-01-29T21:34:14.185Z,-1.68
2023-01-29T21:37:16.861Z,-1.52
2023-01-29T21:40:21.281Z,-1.43
2023-01-29T21:43:23.909Z,-1.45
2023-01-29T21:46:26.289Z,-1.61
2023-01-29T21:49:31.027Z,-1.58
2023-01-29T21:52:33.404Z,-1.61
2023-01-29T21:55:36.097Z,-1.53
2023-01-29T21:58:38.425Z,-1.57
2023-01-29T22:01:41.089Z,-1.41
2023-01-29T22:04:43.731Z,-1.52
2023-01-29T22:07:46.324Z,-1.40
2023-01-29T22:10:49.039Z,-1.46
2023-01-29T22:13:51.670Z,-1.47
2023-01-29T22:16:54.375Z,-1.47
2023-01-29T22:19:56.755Z,-1.49
2023-01-29T22:23:00.557Z,-1.36
2023-01-29T22:26:04.578Z,-1.46
2023-01-29T22:29:07.200Z,-1.30
2023-01-29T22:32:10.814Z,-1.36
2023-01-29T22:35:13.824Z,-1.38
2023-01-29T22:38:16.238Z,-1.38
2023-01-29T22:41:18.875Z,-1.43
2023-01-29T22:44:21.280Z,-1.39
2023-01-29T22:47:23.904Z,-1.37
2023-01-29T22:50:26.262Z,-1.51
2023-01-29T22:53:28.853Z,-1.52
2023-01-29T22:56:31.245Z,-1.39
2023-01-29T22:59:33.981Z,-1.47
2023-01-29T23:02:36.534Z,-1.66
2023-01-29T23:05:39.208Z,-1.67
2023-01-29T23:08:41.710Z,-1.66
2023-01-29T23:11:44.349Z,-1.58
2023-01-29T23:14:47.064Z,-1.58
2023-01-29T23:17:49.651Z,-1.47
2023-01-29T23:20:56.939Z,-1.55
2023-01-29T23:24:00.570Z,-1.63
2023-01-29T23:27:14.677Z,-1.47
2023-01-29T23:30:17.646Z,-1.60
2023-01-29T23:33:20.421Z,-1.44
2023-01-29T23:36:23.112Z,-1.41
2023-01-29T23:39:25.440Z,-1.47
2023-01-29T23:42:28.055Z,-1.34
2023-01-29T23:45:30.390Z,-1.46
2023-01-29T23:48:33.057Z,-1.44
2023-01-29T23:51:35.434Z,-1.47
2023-01-29T23:54:38.078Z,-1.47
2023-01-29T23:57:40.391Z,-1.46
